sensor_id;sensor_type;location;lat;lon;timestamp;temperature;humidity
7159;DHT22;63175;52.374;13.132;2023-07-13T00:00:38;22.10;73.40
7159;DHT22;63175;52.374;13.132;2023-07-13T00:03:06;22.10;73.60
7159;DHT22;63175;52.374;13.132;2023-07-13T00:05:32;22.10;74.20
7159;DHT22;63175;52.374;13.132;2023-07-13T00:08:01;22.10;73.90
7159;DHT22;63175;52.374;13.132;2023-07-13T00:10:27;22.10;74.00
7159;DHT22;63175;52.374;13.132;2023-07-13T00:12:54;22.10;74.20
7159;DHT22;63175;52.374;13.132;2023-07-13T00:15:25;22.10;74.30
7159;DHT22;63175;52.374;13.132;2023-07-13T00:17:54;22.00;74.40
7159;DHT22;63175;52.374;13.132;2023-07-13T00:20:22;22.00;74.80
7159;DHT22;63175;52.374;13.132;2023-07-13T00:22:50;21.90;75.00
7159;DHT22;63175;52.374;13.132;2023-07-13T00:25:20;21.90;75.10
7159;DHT22;63175;52.374;13.132;2023-07-13T00:27:49;21.80;75.10
7159;DHT22;63175;52.374;13.132;2023-07-13T00:30:16;21.80;75.50
7159;DHT22;63175;52.374;13.132;2023-07-13T00:32:43;21.80;75.70
7159;DHT22;63175;52.374;13.132;2023-07-13T00:35:13;21.70;76.10
7159;DHT22;63175;52.374;13.132;2023-07-13T00:37:41;21.70;76.50
7159;DHT22;63175;52.374;13.132;2023-07-13T00:40:11;21.70;76.90
7159;DHT22;63175;52.374;13.132;2023-07-13T00:42:40;21.60;77.30
7159;DHT22;63175;52.374;13.132;2023-07-13T00:48:14;21.50;77.80
7159;DHT22;63175;52.374;13.132;2023-07-13T00:50:43;21.50;78.10
7159;DHT22;63175;52.374;13.132;2023-07-13T00:53:11;21.50;78.40
7159;DHT22;63175;52.374;13.132;2023-07-13T00:55:39;21.50;78.80
7159;DHT22;63175;52.374;13.132;2023-07-13T00:58:07;21.40;79.20
7159;DHT22;63175;52.374;13.132;2023-07-13T01:00:36;21.30;79.70
7159;DHT22;63175;52.374;13.132;2023-07-13T01:03:04;21.30;80.10
7159;DHT22;63175;52.374;13.132;2023-07-13T01:05:33;21.20;80.30
7159;DHT22;63175;52.374;13.132;2023-07-13T01:08:01;21.10;80.50
7159;DHT22;63175;52.374;13.132;2023-07-13T01:10:29;21.10;80.80
7159;DHT22;63175;52.374;13.132;2023-07-13T01:13:05;21.10;81.10
7159;DHT22;63175;52.374;13.132;2023-07-13T01:15:40;21.00;81.80
7159;DHT22;63175;52.374;13.132;2023-07-13T01:18:09;21.00;81.80
7159;DHT22;63175;52.374;13.132;2023-07-13T01:20:37;20.90;84.70
7159;DHT22;63175;52.374;13.132;2023-07-13T01:23:08;20.80;83.00
7159;DHT22;63175;52.374;13.132;2023-07-13T01:25:36;20.70;84.00
7159;DHT22;63175;52.374;13.132;2023-07-13T01:28:05;20.70;92.70
7159;DHT22;63175;52.374;13.132;2023-07-13T01:30:34;20.60;90.00
7159;DHT22;63175;52.374;13.132;2023-07-13T01:33:01;20.60;91.40
7159;DHT22;63175;52.374;13.132;2023-07-13T01:35:29;20.60;91.90
7159;DHT22;63175;52.374;13.132;2023-07-13T01:37:56;20.50;83.10
7159;DHT22;63175;52.374;13.132;2023-07-13T01:40:24;20.50;84.10
7159;DHT22;63175;52.374;13.132;2023-07-13T01:42:51;20.50;84.50
7159;DHT22;63175;52.374;13.132;2023-07-13T01:45:18;20.50;84.60
7159;DHT22;63175;52.374;13.132;2023-07-13T01:47:45;20.50;85.00
7159;DHT22;63175;52.374;13.132;2023-07-13T01:50:12;20.40;85.40
7159;DHT22;63175;52.374;13.132;2023-07-13T01:52:38;20.40;85.80
7159;DHT22;63175;52.374;13.132;2023-07-13T01:55:06;20.30;86.00
7159;DHT22;63175;52.374;13.132;2023-07-13T01:57:35;20.40;86.30
7159;DHT22;63175;52.374;13.132;2023-07-13T02:00:03;20.40;86.40
7159;DHT22;63175;52.374;13.132;2023-07-13T02:02:30;20.40;86.70
7159;DHT22;63175;52.374;13.132;2023-07-13T02:04:57;20.40;87.10
7159;DHT22;63175;52.374;13.132;2023-07-13T02:07:24;20.30;87.30
7159;DHT22;63175;52.374;13.132;2023-07-13T02:09:51;20.30;87.80
7159;DHT22;63175;52.374;13.132;2023-07-13T02:12:17;20.20;88.20
7159;DHT22;63175;52.374;13.132;2023-07-13T02:14:46;20.20;88.60
7159;DHT22;63175;52.374;13.132;2023-07-13T02:17:14;20.20;89.10
7159;DHT22;63175;52.374;13.132;2023-07-13T02:19:41;20.10;89.40
7159;DHT22;63175;52.374;13.132;2023-07-13T02:22:07;20.10;89.90
7159;DHT22;63175;52.374;13.132;2023-07-13T02:24:34;20.00;90.10
7159;DHT22;63175;52.374;13.132;2023-07-13T02:27:01;20.00;90.40
7159;DHT22;63175;52.374;13.132;2023-07-13T02:29:28;19.90;90.50
7159;DHT22;63175;52.374;13.132;2023-07-13T02:31:56;19.90;90.70
7159;DHT22;63175;52.374;13.132;2023-07-13T02:34:23;19.90;91.20
7159;DHT22;63175;52.374;13.132;2023-07-13T02:36:50;19.80;91.30
7159;DHT22;63175;52.374;13.132;2023-07-13T02:39:17;19.70;91.60
7159;DHT22;63175;52.374;13.132;2023-07-13T02:41:44;19.60;91.90
7159;DHT22;63175;52.374;13.132;2023-07-13T02:44:12;19.70;92.20
7159;DHT22;63175;52.374;13.132;2023-07-13T02:46:39;19.60;92.40
7159;DHT22;63175;52.374;13.132;2023-07-13T02:49:07;19.60;92.50
7159;DHT22;63175;52.374;13.132;2023-07-13T02:51:34;19.50;92.80
7159;DHT22;63175;52.374;13.132;2023-07-13T02:54:02;19.50;93.00
7159;DHT22;63175;52.374;13.132;2023-07-13T02:56:30;19.40;93.30
7159;DHT22;63175;52.374;13.132;2023-07-13T02:58:58;19.40;93.60
7159;DHT22;63175;52.374;13.132;2023-07-13T03:01:25;19.40;93.80
7159;DHT22;63175;52.374;13.132;2023-07-13T03:03:52;19.30;94.10
7159;DHT22;63175;52.374;13.132;2023-07-13T03:06:20;19.30;94.20
7159;DHT22;63175;52.374;13.132;2023-07-13T03:08:48;19.20;94.50
7159;DHT22;63175;52.374;13.132;2023-07-13T03:11:18;19.20;94.70
7159;DHT22;63175;52.374;13.132;2023-07-13T03:13:45;19.10;94.90
7159;DHT22;63175;52.374;13.132;2023-07-13T03:16:13;19.10;95.10
7159;DHT22;63175;52.374;13.132;2023-07-13T03:18:41;19.00;95.50
7159;DHT22;63175;52.374;13.132;2023-07-13T03:21:08;19.00;95.60
7159;DHT22;63175;52.374;13.132;2023-07-13T03:23:36;19.00;96.50
7159;DHT22;63175;52.374;13.132;2023-07-13T03:26:05;19.10;97.10
7159;DHT22;63175;52.374;13.132;2023-07-13T03:28:32;19.10;97.80
7159;DHT22;63175;52.374;13.132;2023-07-13T03:31:00;19.20;97.60
7159;DHT22;63175;52.374;13.132;2023-07-13T03:33:28;19.20;98.50
7159;DHT22;63175;52.374;13.132;2023-07-13T03:35:55;19.20;98.50
7159;DHT22;63175;52.374;13.132;2023-07-13T03:38:22;19.20;95.90
7159;DHT22;63175;52.374;13.132;2023-07-13T03:40:50;19.20;99.20
7159;DHT22;63175;52.374;13.132;2023-07-13T03:43:17;19.20;98.80
7159;DHT22;63175;52.374;13.132;2023-07-13T03:45:45;19.20;99.00
7159;DHT22;63175;52.374;13.132;2023-07-13T03:48:13;19.20;99.20
7159;DHT22;63175;52.374;13.132;2023-07-13T03:50:40;19.20;99.10
7159;DHT22;63175;52.374;13.132;2023-07-13T03:53:07;19.20;99.20
7159;DHT22;63175;52.374;13.132;2023-07-13T03:55:34;19.20;99.20
7159;DHT22;63175;52.374;13.132;2023-07-13T03:58:23;19.30;99.20
7159;DHT22;63175;52.374;13.132;2023-07-13T04:00:51;19.40;99.30
7159;DHT22;63175;52.374;13.132;2023-07-13T04:03:18;19.40;99.20
7159;DHT22;63175;52.374;13.132;2023-07-13T04:05:45;19.40;99.30
7159;DHT22;63175;52.374;13.132;2023-07-13T04:08:13;19.40;99.30
7159;DHT22;63175;52.374;13.132;2023-07-13T04:10:39;19.50;99.60
7159;DHT22;63175;52.374;13.132;2023-07-13T04:13:08;19.50;99.60
7159;DHT22;63175;52.374;13.132;2023-07-13T04:15:34;19.50;99.60
7159;DHT22;63175;52.374;13.132;2023-07-13T04:18:01;19.60;99.70
7159;DHT22;63175;52.374;13.132;2023-07-13T04:20:29;19.50;99.70
7159;DHT22;63175;52.374;13.132;2023-07-13T04:22:56;19.60;99.90
7159;DHT22;63175;52.374;13.132;2023-07-13T04:25:24;19.60;99.90
7159;DHT22;63175;52.374;13.132;2023-07-13T04:27:52;19.70;99.90
7159;DHT22;63175;52.374;13.132;2023-07-13T04:30:20;19.60;99.90
7159;DHT22;63175;52.374;13.132;2023-07-13T04:32:47;19.60;99.90
7159;DHT22;63175;52.374;13.132;2023-07-13T04:35:14;19.60;99.90
7159;DHT22;63175;52.374;13.132;2023-07-13T04:37:41;19.60;99.90
7159;DHT22;63175;52.374;13.132;2023-07-13T04:40:09;19.60;99.90
7159;DHT22;63175;52.374;13.132;2023-07-13T04:42:37;19.60;99.90
7159;DHT22;63175;52.374;13.132;2023-07-13T04:45:05;19.60;99.90
7159;DHT22;63175;52.374;13.132;2023-07-13T04:47:33;19.70;99.90
7159;DHT22;63175;52.374;13.132;2023-07-13T04:50:00;19.70;99.90
7159;DHT22;63175;52.374;13.132;2023-07-13T04:52:28;19.70;99.90
7159;DHT22;63175;52.374;13.132;2023-07-13T04:54:54;19.70;99.90
7159;DHT22;63175;52.374;13.132;2023-07-13T04:57:21;19.80;99.90
7159;DHT22;63175;52.374;13.132;2023-07-13T04:59:48;19.80;99.90
7159;DHT22;63175;52.374;13.132;2023-07-13T05:02:15;19.90;99.90
7159;DHT22;63175;52.374;13.132;2023-07-13T05:04:46;19.90;99.90
7159;DHT22;63175;52.374;13.132;2023-07-13T05:07:13;20.00;99.90
7159;DHT22;63175;52.374;13.132;2023-07-13T05:09:40;20.70;99.90
7159;DHT22;63175;52.374;13.132;2023-07-13T05:12:09;20.10;99.90
7159;DHT22;63175;52.374;13.132;2023-07-13T05:14:36;20.10;99.90
7159;DHT22;63175;52.374;13.132;2023-07-13T05:17:03;20.20;99.90
7159;DHT22;63175;52.374;13.132;2023-07-13T05:19:30;20.20;99.90
7159;DHT22;63175;52.374;13.132;2023-07-13T05:21:59;20.20;99.90
7159;DHT22;63175;52.374;13.132;2023-07-13T05:24:26;20.20;99.90
7159;DHT22;63175;52.374;13.132;2023-07-13T05:26:54;20.30;99.90
7159;DHT22;63175;52.374;13.132;2023-07-13T05:29:22;20.20;99.90
7159;DHT22;63175;52.374;13.132;2023-07-13T05:31:49;20.40;99.90
7159;DHT22;63175;52.374;13.132;2023-07-13T05:34:16;20.40;99.90
7159;DHT22;63175;52.374;13.132;2023-07-13T05:36:43;20.50;99.90
7159;DHT22;63175;52.374;13.132;2023-07-13T05:39:11;20.50;99.90
7159;DHT22;63175;52.374;13.132;2023-07-13T05:41:38;20.60;99.90
7159;DHT22;63175;52.374;13.132;2023-07-13T05:44:05;20.60;99.90
7159;DHT22;63175;52.374;13.132;2023-07-13T05:46:32;20.80;99.90
7159;DHT22;63175;52.374;13.132;2023-07-13T05:49:00;20.70;99.90
7159;DHT22;63175;52.374;13.132;2023-07-13T05:51:27;20.70;99.90
7159;DHT22;63175;52.374;13.132;2023-07-13T05:53:53;20.80;99.90
7159;DHT22;63175;52.374;13.132;2023-07-13T05:56:23;20.80;99.80
7159;DHT22;63175;52.374;13.132;2023-07-13T05:58:50;20.90;99.90
7159;DHT22;63175;52.374;13.132;2023-07-13T06:01:17;20.90;99.90
7159;DHT22;63175;52.374;13.132;2023-07-13T06:03:45;21.00;99.90
7159;DHT22;63175;52.374;13.132;2023-07-13T06:06:13;21.10;99.90
7159;DHT22;63175;52.374;13.132;2023-07-13T06:08:40;21.30;99.70
7159;DHT22;63175;52.374;13.132;2023-07-13T06:11:10;21.40;99.20
7159;DHT22;63175;52.374;13.132;2023-07-13T06:13:40;21.50;99.40
7159;DHT22;63175;52.374;13.132;2023-07-13T06:16:08;21.50;99.10
7159;DHT22;63175;52.374;13.132;2023-07-13T06:18:35;21.70;98.50
7159;DHT22;63175;52.374;13.132;2023-07-13T06:21:06;21.70;98.70
7159;DHT22;63175;52.374;13.132;2023-07-13T06:23:33;21.80;98.50
7159;DHT22;63175;52.374;13.132;2023-07-13T06:26:00;21.80;98.20
7159;DHT22;63175;52.374;13.132;2023-07-13T06:28:27;22.00;98.20
7159;DHT22;63175;52.374;13.132;2023-07-13T06:30:55;22.10;97.20
7159;DHT22;63175;52.374;13.132;2023-07-13T06:33:22;22.20;97.50
7159;DHT22;63175;52.374;13.132;2023-07-13T06:35:49;22.30;97.30
7159;DHT22;63175;52.374;13.132;2023-07-13T06:38:16;22.50;97.20
7159;DHT22;63175;52.374;13.132;2023-07-13T06:40:43;22.60;96.60
7159;DHT22;63175;52.374;13.132;2023-07-13T06:43:10;22.70;96.40
7159;DHT22;63175;52.374;13.132;2023-07-13T06:45:42;22.80;95.90
7159;DHT22;63175;52.374;13.132;2023-07-13T06:48:10;22.90;96.00
7159;DHT22;63175;52.374;13.132;2023-07-13T06:50:37;23.00;95.40
7159;DHT22;63175;52.374;13.132;2023-07-13T06:53:03;23.00;93.90
7159;DHT22;63175;52.374;13.132;2023-07-13T06:55:30;23.10;94.60
7159;DHT22;63175;52.374;13.132;2023-07-13T06:57:57;23.20;94.40
7159;DHT22;63175;52.374;13.132;2023-07-13T07:00:24;23.30;94.50
7159;DHT22;63175;52.374;13.132;2023-07-13T07:02:51;23.40;94.80
7159;DHT22;63175;52.374;13.132;2023-07-13T07:05:19;23.50;94.90
7159;DHT22;63175;52.374;13.132;2023-07-13T07:07:47;23.60;94.50
7159;DHT22;63175;52.374;13.132;2023-07-13T07:10:14;23.70;94.70
7159;DHT22;63175;52.374;13.132;2023-07-13T07:12:41;23.80;95.40
7159;DHT22;63175;52.374;13.132;2023-07-13T07:15:09;23.90;95.50
7159;DHT22;63175;52.374;13.132;2023-07-13T07:17:36;23.90;95.10
7159;DHT22;63175;52.374;13.132;2023-07-13T07:20:03;24.00;94.90
7159;DHT22;63175;52.374;13.132;2023-07-13T07:22:31;24.20;94.60
7159;DHT22;63175;52.374;13.132;2023-07-13T07:24:58;24.30;94.60
7159;DHT22;63175;52.374;13.132;2023-07-13T07:27:26;24.50;93.90
7159;DHT22;63175;52.374;13.132;2023-07-13T07:29:52;24.50;93.20
7159;DHT22;63175;52.374;13.132;2023-07-13T07:32:20;24.50;92.70
7159;DHT22;63175;52.374;13.132;2023-07-13T07:34:47;24.50;86.70
7159;DHT22;63175;52.374;13.132;2023-07-13T07:37:14;24.50;86.00
7159;DHT22;63175;52.374;13.132;2023-07-13T07:39:43;24.50;85.30
7159;DHT22;63175;52.374;13.132;2023-07-13T07:42:10;24.50;84.70
7159;DHT22;63175;52.374;13.132;2023-07-13T07:44:39;24.50;88.40
7159;DHT22;63175;52.374;13.132;2023-07-13T07:47:06;24.50;89.20
7159;DHT22;63175;52.374;13.132;2023-07-13T07:49:33;24.50;87.80
7159;DHT22;63175;52.374;13.132;2023-07-13T07:52:00;24.60;91.40
7159;DHT22;63175;52.374;13.132;2023-07-13T07:54:27;24.70;92.90
7159;DHT22;63175;52.374;13.132;2023-07-13T07:56:55;24.70;93.30
7159;DHT22;63175;52.374;13.132;2023-07-13T07:59:22;24.70;92.40
7159;DHT22;63175;52.374;13.132;2023-07-13T08:01:49;24.80;92.80
7159;DHT22;63175;52.374;13.132;2023-07-13T08:04:17;24.70;93.20
7159;DHT22;63175;52.374;13.132;2023-07-13T08:06:43;24.70;93.50
7159;DHT22;63175;52.374;13.132;2023-07-13T08:11:38;24.90;78.30
7159;DHT22;63175;52.374;13.132;2023-07-13T08:14:06;25.00;78.50
7159;DHT22;63175;52.374;13.132;2023-07-13T08:16:34;25.00;78.20
7159;DHT22;63175;52.374;13.132;2023-07-13T08:19:01;25.10;78.10
7159;DHT22;63175;52.374;13.132;2023-07-13T08:21:29;25.20;77.60
7159;DHT22;63175;52.374;13.132;2023-07-13T08:23:56;25.30;77.20
7159;DHT22;63175;52.374;13.132;2023-07-13T08:26:23;25.40;76.60
7159;DHT22;63175;52.374;13.132;2023-07-13T08:28:50;25.60;76.70
7159;DHT22;63175;52.374;13.132;2023-07-13T08:31:18;25.70;75.90
7159;DHT22;63175;52.374;13.132;2023-07-13T08:33:45;25.80;75.40
7159;DHT22;63175;52.374;13.132;2023-07-13T08:36:12;25.90;74.20
7159;DHT22;63175;52.374;13.132;2023-07-13T08:38:39;26.00;73.10
7159;DHT22;63175;52.374;13.132;2023-07-13T08:41:14;26.10;72.70
7159;DHT22;63175;52.374;13.132;2023-07-13T08:43:43;26.20;72.30
7159;DHT22;63175;52.374;13.132;2023-07-13T08:46:14;26.30;71.50
7159;DHT22;63175;52.374;13.132;2023-07-13T08:48:47;26.40;70.50
7159;DHT22;63175;52.374;13.132;2023-07-13T08:51:35;26.50;69.30
7159;DHT22;63175;52.374;13.132;2023-07-13T08:54:10;26.60;69.80
7159;DHT22;63175;52.374;13.132;2023-07-13T08:56:39;26.60;69.50
7159;DHT22;63175;52.374;13.132;2023-07-13T08:59:11;26.70;68.60
7159;DHT22;63175;52.374;13.132;2023-07-13T09:01:50;26.90;67.00
7159;DHT22;63175;52.374;13.132;2023-07-13T09:04:23;27.00;64.40
7159;DHT22;63175;52.374;13.132;2023-07-13T09:07:00;27.20;62.60
7159;DHT22;63175;52.374;13.132;2023-07-13T09:09:41;27.20;61.80
7159;DHT22;63175;52.374;13.132;2023-07-13T09:12:14;27.10;61.60
7159;DHT22;63175;52.374;13.132;2023-07-13T09:14:45;27.10;61.80
7159;DHT22;63175;52.374;13.132;2023-07-13T09:17:17;27.00;61.70
7159;DHT22;63175;52.374;13.132;2023-07-13T09:19:52;26.90;59.90
7159;DHT22;63175;52.374;13.132;2023-07-13T09:22:21;26.70;59.40
7159;DHT22;63175;52.374;13.132;2023-07-13T09:27:30;26.80;59.30
7159;DHT22;63175;52.374;13.132;2023-07-13T09:30:04;26.90;59.80
7159;DHT22;63175;52.374;13.132;2023-07-13T09:32:36;27.00;59.70
7159;DHT22;63175;52.374;13.132;2023-07-13T09:35:10;27.00;59.80
7159;DHT22;63175;52.374;13.132;2023-07-13T09:37:38;26.90;59.80
7159;DHT22;63175;52.374;13.132;2023-07-13T09:40:12;27.00;60.00
7159;DHT22;63175;52.374;13.132;2023-07-13T09:42:42;27.20;59.70
7159;DHT22;63175;52.374;13.132;2023-07-13T09:45:09;27.30;58.50
7159;DHT22;63175;52.374;13.132;2023-07-13T09:47:39;27.50;57.20
7159;DHT22;63175;52.374;13.132;2023-07-13T09:50:14;27.60;56.40
7159;DHT22;63175;52.374;13.132;2023-07-13T09:52:49;27.80;55.20
7159;DHT22;63175;52.374;13.132;2023-07-13T09:55:25;28.10;54.40
7159;DHT22;63175;52.374;13.132;2023-07-13T09:57:52;28.10;53.60
7159;DHT22;63175;52.374;13.132;2023-07-13T10:00:25;28.00;53.90
7159;DHT22;63175;52.374;13.132;2023-07-13T10:03:00;28.10;54.50
7159;DHT22;63175;52.374;13.132;2023-07-13T10:05:37;28.10;53.60
7159;DHT22;63175;52.374;13.132;2023-07-13T10:08:04;28.00;53.60
7159;DHT22;63175;52.374;13.132;2023-07-13T10:10:33;27.90;53.60
7159;DHT22;63175;52.374;13.132;2023-07-13T10:13:01;27.60;53.90
7159;DHT22;63175;52.374;13.132;2023-07-13T10:15:31;27.50;54.40
7159;DHT22;63175;52.374;13.132;2023-07-13T10:17:59;27.30;54.50
7159;DHT22;63175;52.374;13.132;2023-07-13T10:20:27;27.10;54.70
7159;DHT22;63175;52.374;13.132;2023-07-13T10:22:59;26.90;55.20
7159;DHT22;63175;52.374;13.132;2023-07-13T10:25:29;26.90;55.20
7159;DHT22;63175;52.374;13.132;2023-07-13T10:28:02;27.00;54.80
7159;DHT22;63175;52.374;13.132;2023-07-13T10:30:34;27.10;54.80
7159;DHT22;63175;52.374;13.132;2023-07-13T10:33:02;27.40;54.70
7159;DHT22;63175;52.374;13.132;2023-07-13T10:35:31;27.50;53.30
7159;DHT22;63175;52.374;13.132;2023-07-13T10:38:02;27.80;53.40
7159;DHT22;63175;52.374;13.132;2023-07-13T10:40:35;28.00;52.90
7159;DHT22;63175;52.374;13.132;2023-07-13T10:43:14;28.00;53.00
7159;DHT22;63175;52.374;13.132;2023-07-13T10:45:43;27.90;52.40
7159;DHT22;63175;52.374;13.132;2023-07-13T10:48:13;27.90;52.10
7159;DHT22;63175;52.374;13.132;2023-07-13T10:50:42;28.00;52.40
7159;DHT22;63175;52.374;13.132;2023-07-13T10:55:58;28.50;51.10
7159;DHT22;63175;52.374;13.132;2023-07-13T10:58:31;28.70;51.40
7159;DHT22;63175;52.374;13.132;2023-07-13T11:01:06;28.80;50.60
7159;DHT22;63175;52.374;13.132;2023-07-13T11:03:37;28.80;50.20
7159;DHT22;63175;52.374;13.132;2023-07-13T11:06:08;28.80;47.60
7159;DHT22;63175;52.374;13.132;2023-07-13T11:08:38;28.70;48.50
7159;DHT22;63175;52.374;13.132;2023-07-13T11:11:35;28.80;49.00
7159;DHT22;63175;52.374;13.132;2023-07-13T11:14:05;29.10;48.70
7159;DHT22;63175;52.374;13.132;2023-07-13T11:16:42;29.20;48.50
7159;DHT22;63175;52.374;13.132;2023-07-13T11:19:29;29.50;48.60
7159;DHT22;63175;52.374;13.132;2023-07-13T11:22:26;29.70;48.60
7159;DHT22;63175;52.374;13.132;2023-07-13T11:25:29;30.00;47.70
7159;DHT22;63175;52.374;13.132;2023-07-13T11:28:16;30.00;48.10
7159;DHT22;63175;52.374;13.132;2023-07-13T11:30:46;30.00;47.80
7159;DHT22;63175;52.374;13.132;2023-07-13T11:33:17;29.90;47.70
7159;DHT22;63175;52.374;13.132;2023-07-13T11:36:02;29.90;47.20
7159;DHT22;63175;52.374;13.132;2023-07-13T11:38:32;29.90;47.30
7159;DHT22;63175;52.374;13.132;2023-07-13T11:41:05;29.90;47.20
7159;DHT22;63175;52.374;13.132;2023-07-13T11:43:32;30.00;46.90
7159;DHT22;63175;52.374;13.132;2023-07-13T11:46:13;30.00;46.50
7159;DHT22;63175;52.374;13.132;2023-07-13T11:48:40;30.10;46.20
7159;DHT22;63175;52.374;13.132;2023-07-13T11:51:16;30.10;45.20
7159;DHT22;63175;52.374;13.132;2023-07-13T11:53:46;30.10;45.30
7159;DHT22;63175;52.374;13.132;2023-07-13T11:56:15;30.20;46.00
7159;DHT22;63175;52.374;13.132;2023-07-13T11:58:42;30.20;46.10
7159;DHT22;63175;52.374;13.132;2023-07-13T12:01:16;30.30;45.80
7159;DHT22;63175;52.374;13.132;2023-07-13T12:03:45;30.40;45.80
7159;DHT22;63175;52.374;13.132;2023-07-13T12:06:25;30.40;45.80
7159;DHT22;63175;52.374;13.132;2023-07-13T12:08:56;30.50;45.40
7159;DHT22;63175;52.374;13.132;2023-07-13T12:11:25;30.60;44.80
7159;DHT22;63175;52.374;13.132;2023-07-13T12:13:52;30.70;44.60
7159;DHT22;63175;52.374;13.132;2023-07-13T12:16:28;30.60;44.20
7159;DHT22;63175;52.374;13.132;2023-07-13T12:18:56;30.60;44.10
7159;DHT22;63175;52.374;13.132;2023-07-13T12:21:30;30.50;43.70
7159;DHT22;63175;52.374;13.132;2023-07-13T12:23:57;30.50;43.90
7159;DHT22;63175;52.374;13.132;2023-07-13T12:26:29;30.40;44.10
7159;DHT22;63175;52.374;13.132;2023-07-13T12:28:59;30.40;43.90
7159;DHT22;63175;52.374;13.132;2023-07-13T12:31:34;30.50;44.10
7159;DHT22;63175;52.374;13.132;2023-07-13T12:34:06;30.70;44.00
7159;DHT22;63175;52.374;13.132;2023-07-13T12:36:37;30.80;43.80
7159;DHT22;63175;52.374;13.132;2023-07-13T12:39:13;30.90;43.50
7159;DHT22;63175;52.374;13.132;2023-07-13T12:41:42;31.00;43.20
7159;DHT22;63175;52.374;13.132;2023-07-13T12:44:12;31.20;42.70
7159;DHT22;63175;52.374;13.132;2023-07-13T12:46:39;31.10;42.60
7159;DHT22;63175;52.374;13.132;2023-07-13T12:49:07;31.10;42.70
7159;DHT22;63175;52.374;13.132;2023-07-13T12:51:34;31.10;42.60
7159;DHT22;63175;52.374;13.132;2023-07-13T12:54:13;31.10;42.40
7159;DHT22;63175;52.374;13.132;2023-07-13T12:56:43;30.90;42.20
7159;DHT22;63175;52.374;13.132;2023-07-13T12:59:18;30.70;42.80
7159;DHT22;63175;52.374;13.132;2023-07-13T13:01:46;30.60;43.30
7159;DHT22;63175;52.374;13.132;2023-07-13T13:04:15;30.70;43.60
7159;DHT22;63175;52.374;13.132;2023-07-13T13:06:46;30.80;43.60
7159;DHT22;63175;52.374;13.132;2023-07-13T13:09:15;31.00;43.50
7159;DHT22;63175;52.374;13.132;2023-07-13T13:11:43;31.10;43.50
7159;DHT22;63175;52.374;13.132;2023-07-13T13:14:10;31.30;42.50
7159;DHT22;63175;52.374;13.132;2023-07-13T13:16:45;31.20;42.00
7159;DHT22;63175;52.374;13.132;2023-07-13T13:19:15;31.10;42.00
7159;DHT22;63175;52.374;13.132;2023-07-13T13:21:44;31.20;41.80
7159;DHT22;63175;52.374;13.132;2023-07-13T13:24:13;31.30;42.10
7159;DHT22;63175;52.374;13.132;2023-07-13T13:26:40;31.40;41.70
7159;DHT22;63175;52.374;13.132;2023-07-13T13:29:15;31.50;40.40
7159;DHT22;63175;52.374;13.132;2023-07-13T13:31:43;31.40;39.10
7159;DHT22;63175;52.374;13.132;2023-07-13T13:34:11;31.30;39.50
7159;DHT22;63175;52.374;13.132;2023-07-13T13:36:41;31.30;39.80
7159;DHT22;63175;52.374;13.132;2023-07-13T13:39:20;31.30;41.20
7159;DHT22;63175;52.374;13.132;2023-07-13T13:41:48;30.90;41.80
7159;DHT22;63175;52.374;13.132;2023-07-13T13:44:18;30.70;42.50
7159;DHT22;63175;52.374;13.132;2023-07-13T13:46:46;30.60;43.00
7159;DHT22;63175;52.374;13.132;2023-07-13T13:49:15;30.90;43.20
7159;DHT22;63175;52.374;13.132;2023-07-13T13:51:44;31.10;43.30
7159;DHT22;63175;52.374;13.132;2023-07-13T13:54:12;30.90;42.70
7159;DHT22;63175;52.374;13.132;2023-07-13T13:59:09;30.60;42.40
7159;DHT22;63175;52.374;13.132;2023-07-13T14:01:38;30.80;42.20
7159;DHT22;63175;52.374;13.132;2023-07-13T14:04:06;30.90;42.10
7159;DHT22;63175;52.374;13.132;2023-07-13T14:06:34;31.10;42.20
7159;DHT22;63175;52.374;13.132;2023-07-13T14:09:01;31.00;42.30
7159;DHT22;63175;52.374;13.132;2023-07-13T14:11:29;31.30;42.30
7159;DHT22;63175;52.374;13.132;2023-07-13T14:13:59;31.50;41.90
7159;DHT22;63175;52.374;13.132;2023-07-13T14:16:29;31.80;41.50
7159;DHT22;63175;52.374;13.132;2023-07-13T14:18:59;31.90;40.70
7159;DHT22;63175;52.374;13.132;2023-07-13T14:21:28;31.80;41.00
7159;DHT22;63175;52.374;13.132;2023-07-13T14:23:55;31.90;40.80
7159;DHT22;63175;52.374;13.132;2023-07-13T14:26:24;32.00;40.80
7159;DHT22;63175;52.374;13.132;2023-07-13T14:28:53;32.10;41.00
7159;DHT22;63175;52.374;13.132;2023-07-13T14:31:23;32.30;40.10
7159;DHT22;63175;52.374;13.132;2023-07-13T14:33:50;32.30;40.00
7159;DHT22;63175;52.374;13.132;2023-07-13T14:36:26;32.40;39.60
7159;DHT22;63175;52.374;13.132;2023-07-13T14:38:55;32.50;39.40
7159;DHT22;63175;52.374;13.132;2023-07-13T14:41:22;32.60;38.30
7159;DHT22;63175;52.374;13.132;2023-07-13T14:43:49;32.50;38.30
7159;DHT22;63175;52.374;13.132;2023-07-13T14:46:27;32.40;38.10
7159;DHT22;63175;52.374;13.132;2023-07-13T14:49:00;32.10;38.10
7159;DHT22;63175;52.374;13.132;2023-07-13T14:51:31;31.80;38.50
7159;DHT22;63175;52.374;13.132;2023-07-13T14:54:02;31.80;38.70
7159;DHT22;63175;52.374;13.132;2023-07-13T14:56:29;31.70;38.70
7159;DHT22;63175;52.374;13.132;2023-07-13T14:58:55;31.60;38.90
7159;DHT22;63175;52.374;13.132;2023-07-13T15:01:23;31.60;39.40
7159;DHT22;63175;52.374;13.132;2023-07-13T15:03:51;31.60;39.70
7159;DHT22;63175;52.374;13.132;2023-07-13T15:06:19;31.50;39.60
7159;DHT22;63175;52.374;13.132;2023-07-13T15:08:47;31.40;39.70
7159;DHT22;63175;52.374;13.132;2023-07-13T15:11:15;31.30;39.70
7159;DHT22;63175;52.374;13.132;2023-07-13T15:13:43;31.30;39.50
7159;DHT22;63175;52.374;13.132;2023-07-13T15:16:16;31.20;39.70
7159;DHT22;63175;52.374;13.132;2023-07-13T15:18:46;31.10;39.60
7159;DHT22;63175;52.374;13.132;2023-07-13T15:21:19;31.10;39.70
7159;DHT22;63175;52.374;13.132;2023-07-13T15:23:48;30.90;39.50
7159;DHT22;63175;52.374;13.132;2023-07-13T15:26:15;30.70;39.70
7159;DHT22;63175;52.374;13.132;2023-07-13T15:28:43;30.60;40.10
7159;DHT22;63175;52.374;13.132;2023-07-13T15:31:21;30.50;40.40
7159;DHT22;63175;52.374;13.132;2023-07-13T15:33:50;30.40;40.60
7159;DHT22;63175;52.374;13.132;2023-07-13T15:36:17;30.30;40.30
7159;DHT22;63175;52.374;13.132;2023-07-13T15:38:45;30.20;40.30
7159;DHT22;63175;52.374;13.132;2023-07-13T15:41:22;30.10;40.40
7159;DHT22;63175;52.374;13.132;2023-07-13T15:43:50;30.00;40.80
7159;DHT22;63175;52.374;13.132;2023-07-13T15:46:18;29.90;40.40
7159;DHT22;63175;52.374;13.132;2023-07-13T15:48:45;29.70;40.50
7159;DHT22;63175;52.374;13.132;2023-07-13T15:51:21;29.60;40.50
7159;DHT22;63175;52.374;13.132;2023-07-13T15:53:51;29.40;40.60
7159;DHT22;63175;52.374;13.132;2023-07-13T15:56:23;29.40;40.80